sensor_id;sensor_type;location;lat;lon;timestamp;temperature;humidity
37874;DHT22;23709;48.078;11.684;2023-04-25T00:00:27;7.60;99.90
37874;DHT22;23709;48.078;11.684;2023-04-25T00:02:59;7.60;99.90
37874;DHT22;23709;48.078;11.684;2023-04-25T00:05:31;7.50;99.90
37874;DHT22;23709;48.078;11.684;2023-04-25T00:08:04;7.60;99.90
37874;DHT22;23709;48.078;11.684;2023-04-25T00:10:37;7.70;99.90
37874;DHT22;23709;48.078;11.684;2023-04-25T00:13:09;7.70;99.90
37874;DHT22;23709;48.078;11.684;2023-04-25T00:15:43;7.70;99.90
37874;DHT22;23709;48.078;11.684;2023-04-25T00:18:16;7.80;99.90
37874;DHT22;23709;48.078;11.684;2023-04-25T00:20:49;7.90;99.90
37874;DHT22;23709;48.078;11.684;2023-04-25T00:23:22;7.90;99.90
37874;DHT22;23709;48.078;11.684;2023-04-25T00:25:54;7.90;99.90
37874;DHT22;23709;48.078;11.684;2023-04-25T00:28:26;7.90;99.90
37874;DHT22;23709;48.078;11.684;2023-04-25T00:30:58;7.90;99.90
37874;DHT22;23709;48.078;11.684;2023-04-25T00:33:31;7.80;99.90
37874;DHT22;23709;48.078;11.684;2023-04-25T00:36:03;7.80;99.90
37874;DHT22;23709;48.078;11.684;2023-04-25T00:38:36;7.90;99.90
37874;DHT22;23709;48.078;11.684;2023-04-25T00:41:10;7.90;99.90
37874;DHT22;23709;48.078;11.684;2023-04-25T00:43:44;8.00;99.90
37874;DHT22;23709;48.078;11.684;2023-04-25T00:46:17;8.00;99.90
37874;DHT22;23709;48.078;11.684;2023-04-25T00:48:49;8.00;99.90
37874;DHT22;23709;48.078;11.684;2023-04-25T00:51:21;8.00;99.90
37874;DHT22;23709;48.078;11.684;2023-04-25T00:53:54;8.00;99.90
37874;DHT22;23709;48.078;11.684;2023-04-25T00:56:27;7.90;99.90
37874;DHT22;23709;48.078;11.684;2023-04-25T00:58:59;8.00;99.90
37874;DHT22;23709;48.078;11.684;2023-04-25T01:01:31;8.00;99.90
37874;DHT22;23709;48.078;11.684;2023-04-25T01:04:04;7.90;99.90
37874;DHT22;23709;48.078;11.684;2023-04-25T01:06:36;7.90;99.90
37874;DHT22;23709;48.078;11.684;2023-04-25T01:09:09;7.90;99.90
37874;DHT22;23709;48.078;11.684;2023-04-25T01:11:42;7.90;99.90
37874;DHT22;23709;48.078;11.684;2023-04-25T01:14:15;7.90;99.90
37874;DHT22;23709;48.078;11.684;2023-04-25T01:16:47;7.80;99.90
37874;DHT22;23709;48.078;11.684;2023-04-25T01:19:20;7.90;99.90
37874;DHT22;23709;48.078;11.684;2023-04-25T01:21:52;7.80;99.90
37874;DHT22;23709;48.078;11.684;2023-04-25T01:24:24;7.90;99.90
37874;DHT22;23709;48.078;11.684;2023-04-25T01:26:58;7.80;99.90
37874;DHT22;23709;48.078;11.684;2023-04-25T01:29:32;7.80;99.90
37874;DHT22;23709;48.078;11.684;2023-04-25T01:32:06;7.70;99.90
37874;DHT22;23709;48.078;11.684;2023-04-25T01:34:38;7.70;99.90
37874;DHT22;23709;48.078;11.684;2023-04-25T01:37:10;7.70;99.90
37874;DHT22;23709;48.078;11.684;2023-04-25T01:39:43;7.70;99.90
37874;DHT22;23709;48.078;11.684;2023-04-25T01:42:15;7.80;99.90
37874;DHT22;23709;48.078;11.684;2023-04-25T01:44:47;7.70;99.90
37874;DHT22;23709;48.078;11.684;2023-04-25T01:47:19;7.80;99.90
37874;DHT22;23709;48.078;11.684;2023-04-25T01:49:52;7.70;99.90
37874;DHT22;23709;48.078;11.684;2023-04-25T01:52:24;7.70;99.90
37874;DHT22;23709;48.078;11.684;2023-04-25T01:54:57;7.80;99.90
37874;DHT22;23709;48.078;11.684;2023-04-25T01:57:33;7.70;99.90
37874;DHT22;23709;48.078;11.684;2023-04-25T02:00:06;7.70;99.90
37874;DHT22;23709;48.078;11.684;2023-04-25T02:02:45;7.70;99.90
37874;DHT22;23709;48.078;11.684;2023-04-25T02:05:36;7.70;99.90
37874;DHT22;23709;48.078;11.684;2023-04-25T02:08:11;7.70;99.90
37874;DHT22;23709;48.078;11.684;2023-04-25T02:10:43;7.50;99.90
37874;DHT22;23709;48.078;11.684;2023-04-25T02:13:24;7.30;99.90
37874;DHT22;23709;48.078;11.684;2023-04-25T02:16:03;7.30;99.90
37874;DHT22;23709;48.078;11.684;2023-04-25T02:18:36;7.30;99.90
37874;DHT22;23709;48.078;11.684;2023-04-25T02:21:10;7.30;99.90
37874;DHT22;23709;48.078;11.684;2023-04-25T02:23:43;7.20;99.90
37874;DHT22;23709;48.078;11.684;2023-04-25T02:26:19;7.10;99.90
37874;DHT22;23709;48.078;11.684;2023-04-25T02:28:52;7.10;99.90
37874;DHT22;23709;48.078;11.684;2023-04-25T02:31:25;7.20;99.90
37874;DHT22;23709;48.078;11.684;2023-04-25T02:33:58;7.30;99.90
37874;DHT22;23709;48.078;11.684;2023-04-25T02:36:31;7.20;99.90
37874;DHT22;23709;48.078;11.684;2023-04-25T02:39:06;7.20;99.90
37874;DHT22;23709;48.078;11.684;2023-04-25T02:41:38;7.20;99.90
37874;DHT22;23709;48.078;11.684;2023-04-25T02:44:11;7.20;99.90
37874;DHT22;23709;48.078;11.684;2023-04-25T02:46:44;7.20;99.90
37874;DHT22;23709;48.078;11.684;2023-04-25T02:49:16;7.30;99.90
37874;DHT22;23709;48.078;11.684;2023-04-25T02:51:48;7.30;99.90
37874;DHT22;23709;48.078;11.684;2023-04-25T02:54:20;7.30;99.90
37874;DHT22;23709;48.078;11.684;2023-04-25T02:56:53;7.30;99.90
37874;DHT22;23709;48.078;11.684;2023-04-25T02:59:30;7.30;99.90
37874;DHT22;23709;48.078;11.684;2023-04-25T03:02:03;7.30;99.90
37874;DHT22;23709;48.078;11.684;2023-04-25T03:04:35;7.30;99.90
37874;DHT22;23709;48.078;11.684;2023-04-25T03:07:07;7.30;99.90
37874;DHT22;23709;48.078;11.684;2023-04-25T03:09:39;7.30;99.90
37874;DHT22;23709;48.078;11.684;2023-04-25T03:12:12;7.30;99.90
37874;DHT22;23709;48.078;11.684;2023-04-25T03:14:44;7.30;99.90
37874;DHT22;23709;48.078;11.684;2023-04-25T03:17:16;7.40;99.90
37874;DHT22;23709;48.078;11.684;2023-04-25T03:19:49;7.40;99.90
37874;DHT22;23709;48.078;11.684;2023-04-25T03:22:22;7.40;99.90
37874;DHT22;23709;48.078;11.684;2023-04-25T03:24:55;7.30;99.90
37874;DHT22;23709;48.078;11.684;2023-04-25T03:27:27;7.20;99.90
37874;DHT22;23709;48.078;11.684;2023-04-25T03:29:59;7.10;99.90
37874;DHT22;23709;48.078;11.684;2023-04-25T03:32:32;7.10;99.90
37874;DHT22;23709;48.078;11.684;2023-04-25T03:35:05;7.20;99.90
37874;DHT22;23709;48.078;11.684;2023-04-25T03:37:37;7.20;99.90
37874;DHT22;23709;48.078;11.684;2023-04-25T03:40:10;7.00;99.90
37874;DHT22;23709;48.078;11.684;2023-04-25T03:43:10;6.90;99.90
37874;DHT22;23709;48.078;11.684;2023-04-25T03:45:47;6.90;99.90
37874;DHT22;23709;48.078;11.684;2023-04-25T03:48:22;6.70;99.90
37874;DHT22;23709;48.078;11.684;2023-04-25T03:50:58;6.70;99.90
37874;DHT22;23709;48.078;11.684;2023-04-25T03:53:30;6.70;99.90
37874;DHT22;23709;48.078;11.684;2023-04-25T03:56:20;6.70;99.90
37874;DHT22;23709;48.078;11.684;2023-04-25T03:59:00;6.60;99.90
37874;DHT22;23709;48.078;11.684;2023-04-25T04:01:34;6.50;99.90
37874;DHT22;23709;48.078;11.684;2023-04-25T04:04:07;6.30;99.90
37874;DHT22;23709;48.078;11.684;2023-04-25T04:06:40;6.40;99.90
37874;DHT22;23709;48.078;11.684;2023-04-25T04:09:18;6.40;99.90
37874;DHT22;23709;48.078;11.684;2023-04-25T04:11:52;6.40;99.90
37874;DHT22;23709;48.078;11.684;2023-04-25T04:14:24;6.40;99.90
37874;DHT22;23709;48.078;11.684;2023-04-25T04:16:57;6.40;99.90
37874;DHT22;23709;48.078;11.684;2023-04-25T04:19:29;6.40;99.90
37874;DHT22;23709;48.078;11.684;2023-04-25T04:22:23;6.40;99.90
37874;DHT22;23709;48.078;11.684;2023-04-25T04:24:58;6.30;99.90
37874;DHT22;23709;48.078;11.684;2023-04-25T04:27:54;6.30;99.90
37874;DHT22;23709;48.078;11.684;2023-04-25T04:30:39;6.30;99.90
37874;DHT22;23709;48.078;11.684;2023-04-25T04:33:13;6.30;99.90
37874;DHT22;23709;48.078;11.684;2023-04-25T04:35:50;6.30;99.90
37874;DHT22;23709;48.078;11.684;2023-04-25T04:38:24;6.30;99.90
37874;DHT22;23709;48.078;11.684;2023-04-25T04:41:00;6.40;99.90
37874;DHT22;23709;48.078;11.684;2023-04-25T04:43:51;6.40;99.90
37874;DHT22;23709;48.078;11.684;2023-04-25T04:46:34;6.50;99.90
37874;DHT22;23709;48.078;11.684;2023-04-25T04:49:21;6.50;99.90
37874;DHT22;23709;48.078;11.684;2023-04-25T04:52:11;6.50;99.90
37874;DHT22;23709;48.078;11.684;2023-04-25T04:55:06;6.50;99.90
37874;DHT22;23709;48.078;11.684;2023-04-25T04:57:59;6.50;99.90
37874;DHT22;23709;48.078;11.684;2023-04-25T05:00:43;6.50;99.90
37874;DHT22;23709;48.078;11.684;2023-04-25T05:03:36;6.60;99.90
37874;DHT22;23709;48.078;11.684;2023-04-25T05:06:36;6.40;99.90
37874;DHT22;23709;48.078;11.684;2023-04-25T05:09:28;6.60;99.90
37874;DHT22;23709;48.078;11.684;2023-04-25T05:12:07;6.60;99.90
37874;DHT22;23709;48.078;11.684;2023-04-25T05:15:03;6.70;99.90
37874;DHT22;23709;48.078;11.684;2023-04-25T05:17:55;6.70;99.90
37874;DHT22;23709;48.078;11.684;2023-04-25T05:20:46;6.80;99.90
37874;DHT22;23709;48.078;11.684;2023-04-25T05:23:45;6.50;99.90
37874;DHT22;23709;48.078;11.684;2023-04-25T05:26:34;6.60;99.90
37874;DHT22;23709;48.078;11.684;2023-04-25T05:29:27;6.60;99.90
37874;DHT22;23709;48.078;11.684;2023-04-25T05:32:31;6.70;99.90
37874;DHT22;23709;48.078;11.684;2023-04-25T05:35:05;6.70;99.90
37874;DHT22;23709;48.078;11.684;2023-04-25T05:37:45;6.70;99.90
37874;DHT22;23709;48.078;11.684;2023-04-25T05:40:19;6.70;99.90
37874;DHT22;23709;48.078;11.684;2023-04-25T05:42:51;6.70;99.90
37874;DHT22;23709;48.078;11.684;2023-04-25T05:45:32;6.70;99.90
37874;DHT22;23709;48.078;11.684;2023-04-25T05:48:40;6.80;99.90
37874;DHT22;23709;48.078;11.684;2023-04-25T05:51:41;6.80;99.90
37874;DHT22;23709;48.078;11.684;2023-04-25T05:54:19;7.00;99.90
37874;DHT22;23709;48.078;11.684;2023-04-25T05:56:51;7.00;99.90
37874;DHT22;23709;48.078;11.684;2023-04-25T05:59:23;6.90;99.90
37874;DHT22;23709;48.078;11.684;2023-04-25T06:01:56;7.10;99.90
37874;DHT22;23709;48.078;11.684;2023-04-25T06:04:28;7.20;99.90
37874;DHT22;23709;48.078;11.684;2023-04-25T06:07:01;7.40;99.90
37874;DHT22;23709;48.078;11.684;2023-04-25T06:09:34;7.40;99.90
37874;DHT22;23709;48.078;11.684;2023-04-25T06:12:06;7.50;99.90
37874;DHT22;23709;48.078;11.684;2023-04-25T06:14:40;7.70;99.90
37874;DHT22;23709;48.078;11.684;2023-04-25T06:17:13;7.70;99.90
37874;DHT22;23709;48.078;11.684;2023-04-25T06:19:45;7.80;99.90
37874;DHT22;23709;48.078;11.684;2023-04-25T06:22:17;7.90;99.90
37874;DHT22;23709;48.078;11.684;2023-04-25T06:24:49;8.40;99.90
37874;DHT22;23709;48.078;11.684;2023-04-25T06:27:22;7.60;99.90
37874;DHT22;23709;48.078;11.684;2023-04-25T06:29:54;7.60;99.90
37874;DHT22;23709;48.078;11.684;2023-04-25T06:32:26;7.50;99.90
37874;DHT22;23709;48.078;11.684;2023-04-25T06:35:03;7.50;99.90
37874;DHT22;23709;48.078;11.684;2023-04-25T06:37:37;7.40;99.90
37874;DHT22;23709;48.078;11.684;2023-04-25T06:40:10;7.20;99.90
37874;DHT22;23709;48.078;11.684;2023-04-25T06:42:43;7.30;99.90
37874;DHT22;23709;48.078;11.684;2023-04-25T06:45:41;7.30;99.90
37874;DHT22;23709;48.078;11.684;2023-04-25T06:48:17;7.30;99.90
37874;DHT22;23709;48.078;11.684;2023-04-25T06:50:49;7.40;99.90
37874;DHT22;23709;48.078;11.684;2023-04-25T06:53:22;7.50;99.90
37874;DHT22;23709;48.078;11.684;2023-04-25T06:56:00;7.60;99.90
37874;DHT22;23709;48.078;11.684;2023-04-25T06:58:48;7.80;99.90
37874;DHT22;23709;48.078;11.684;2023-04-25T07:01:28;7.90;99.90
37874;DHT22;23709;48.078;11.684;2023-04-25T07:04:02;8.00;99.90
37874;DHT22;23709;48.078;11.684;2023-04-25T07:06:37;8.00;99.90
37874;DHT22;23709;48.078;11.684;2023-04-25T07:09:15;8.00;99.90
37874;DHT22;23709;48.078;11.684;2023-04-25T07:11:50;8.00;99.90
37874;DHT22;23709;48.078;11.684;2023-04-25T07:14:23;8.10;99.90
37874;DHT22;23709;48.078;11.684;2023-04-25T07:16:55;8.20;99.90
37874;DHT22;23709;48.078;11.684;2023-04-25T07:19:32;8.30;99.90
37874;DHT22;23709;48.078;11.684;2023-04-25T07:22:06;8.30;99.90
37874;DHT22;23709;48.078;11.684;2023-04-25T07:24:41;8.30;99.90
37874;DHT22;23709;48.078;11.684;2023-04-25T07:27:16;8.20;99.90
37874;DHT22;23709;48.078;11.684;2023-04-25T07:30:09;8.10;99.90
37874;DHT22;23709;48.078;11.684;2023-04-25T07:32:43;8.20;99.90
37874;DHT22;23709;48.078;11.684;2023-04-25T07:35:16;8.20;99.90
37874;DHT22;23709;48.078;11.684;2023-04-25T07:37:50;8.20;99.90
37874;DHT22;23709;48.078;11.684;2023-04-25T07:40:24;8.30;99.90
37874;DHT22;23709;48.078;11.684;2023-04-25T07:43:04;8.40;99.90
37874;DHT22;23709;48.078;11.684;2023-04-25T07:45:44;8.30;99.90
37874;DHT22;23709;48.078;11.684;2023-04-25T07:48:17;8.20;99.90
37874;DHT22;23709;48.078;11.684;2023-04-25T07:50:56;8.20;99.90
37874;DHT22;23709;48.078;11.684;2023-04-25T07:53:28;8.30;99.90
37874;DHT22;23709;48.078;11.684;2023-04-25T07:56:06;8.40;99.90
37874;DHT22;23709;48.078;11.684;2023-04-25T07:58:42;8.50;99.90
37874;DHT22;23709;48.078;11.684;2023-04-25T08:01:17;8.80;99.90
37874;DHT22;23709;48.078;11.684;2023-04-25T08:03:58;8.90;99.90
37874;DHT22;23709;48.078;11.684;2023-04-25T08:06:49;9.00;99.90
37874;DHT22;23709;48.078;11.684;2023-04-25T08:09:27;9.40;99.90
37874;DHT22;23709;48.078;11.684;2023-04-25T08:12:00;9.70;99.90
37874;DHT22;23709;48.078;11.684;2023-04-25T08:14:36;10.00;99.90
37874;DHT22;23709;48.078;11.684;2023-04-25T08:17:10;10.20;99.90
37874;DHT22;23709;48.078;11.684;2023-04-25T08:19:45;10.30;99.90
37874;DHT22;23709;48.078;11.684;2023-04-25T08:22:29;10.10;99.90
37874;DHT22;23709;48.078;11.684;2023-04-25T08:25:19;10.30;99.90
37874;DHT22;23709;48.078;11.684;2023-04-25T08:27:52;10.70;99.90
37874;DHT22;23709;48.078;11.684;2023-04-25T08:30:26;10.80;98.70
37874;DHT22;23709;48.078;11.684;2023-04-25T08:32:59;10.70;96.60
37874;DHT22;23709;48.078;11.684;2023-04-25T08:35:50;10.70;93.70
37874;DHT22;23709;48.078;11.684;2023-04-25T08:38:23;10.90;91.90
37874;DHT22;23709;48.078;11.684;2023-04-25T08:41:00;10.90;92.40
37874;DHT22;23709;48.078;11.684;2023-04-25T08:43:34;10.80;92.40
37874;DHT22;23709;48.078;11.684;2023-04-25T08:46:07;10.90;92.50
37874;DHT22;23709;48.078;11.684;2023-04-25T08:49:01;10.80;93.20
37874;DHT22;23709;48.078;11.684;2023-04-25T08:51:36;10.80;92.70
37874;DHT22;23709;48.078;11.684;2023-04-25T08:54:12;10.90;92.30
37874;DHT22;23709;48.078;11.684;2023-04-25T08:56:48;10.90;92.70
37874;DHT22;23709;48.078;11.684;2023-04-25T08:59:21;10.80;91.70
37874;DHT22;23709;48.078;11.684;2023-04-25T09:01:55;11.00;94.40
37874;DHT22;23709;48.078;11.684;2023-04-25T09:04:27;11.00;90.10
37874;DHT22;23709;48.078;11.684;2023-04-25T09:07:02;11.10;92.30
37874;DHT22;23709;48.078;11.684;2023-04-25T09:09:35;11.30;90.10
37874;DHT22;23709;48.078;11.684;2023-04-25T09:12:08;11.30;87.80
37874;DHT22;23709;48.078;11.684;2023-04-25T09:14:41;11.60;86.60
37874;DHT22;23709;48.078;11.684;2023-04-25T09:17:29;11.50;84.20
37874;DHT22;23709;48.078;11.684;2023-04-25T09:20:07;11.50;83.60
37874;DHT22;23709;48.078;11.684;2023-04-25T09:22:40;11.60;83.90
37874;DHT22;23709;48.078;11.684;2023-04-25T09:25:13;11.60;83.70
37874;DHT22;23709;48.078;11.684;2023-04-25T09:27:55;11.80;85.20
37874;DHT22;23709;48.078;11.684;2023-04-25T09:30:35;11.90;81.50
37874;DHT22;23709;48.078;11.684;2023-04-25T09:33:14;12.00;80.90
37874;DHT22;23709;48.078;11.684;2023-04-25T09:35:51;12.10;80.10
37874;DHT22;23709;48.078;11.684;2023-04-25T09:38:43;12.30;81.60
37874;DHT22;23709;48.078;11.684;2023-04-25T09:41:37;12.40;79.40
37874;DHT22;23709;48.078;11.684;2023-04-25T09:44:12;12.50;78.00
37874;DHT22;23709;48.078;11.684;2023-04-25T09:46:49;12.50;76.70
37874;DHT22;23709;48.078;11.684;2023-04-25T09:49:28;12.50;74.70
37874;DHT22;23709;48.078;11.684;2023-04-25T09:52:06;12.40;73.10
37874;DHT22;23709;48.078;11.684;2023-04-25T09:54:46;12.50;74.30
37874;DHT22;23709;48.078;11.684;2023-04-25T09:57:24;12.40;73.40
37874;DHT22;23709;48.078;11.684;2023-04-25T10:00:00;12.40;74.90
37874;DHT22;23709;48.078;11.684;2023-04-25T10:02:47;12.30;75.90
37874;DHT22;23709;48.078;11.684;2023-04-25T10:05:41;12.40;76.60
37874;DHT22;23709;48.078;11.684;2023-04-25T10:08:16;12.40;75.60
37874;DHT22;23709;48.078;11.684;2023-04-25T10:10:49;12.40;76.80
37874;DHT22;23709;48.078;11.684;2023-04-25T10:13:23;12.20;75.40
37874;DHT22;23709;48.078;11.684;2023-04-25T10:15:57;12.10;76.00
37874;DHT22;23709;48.078;11.684;2023-04-25T10:18:31;12.10;75.40
37874;DHT22;23709;48.078;11.684;2023-04-25T10:21:05;12.10;74.90
37874;DHT22;23709;48.078;11.684;2023-04-25T10:23:38;11.90;74.10
37874;DHT22;23709;48.078;11.684;2023-04-25T10:26:11;11.80;75.60
37874;DHT22;23709;48.078;11.684;2023-04-25T10:28:57;11.90;76.00
37874;DHT22;23709;48.078;11.684;2023-04-25T10:31:30;11.90;76.40
37874;DHT22;23709;48.078;11.684;2023-04-25T10:34:04;11.90;75.70
37874;DHT22;23709;48.078;11.684;2023-04-25T10:36:37;11.90;76.20
37874;DHT22;23709;48.078;11.684;2023-04-25T10:39:10;12.10;78.20
37874;DHT22;23709;48.078;11.684;2023-04-25T10:41:46;12.40;76.90
37874;DHT22;23709;48.078;11.684;2023-04-25T10:44:20;12.70;76.00
37874;DHT22;23709;48.078;11.684;2023-04-25T10:46:54;12.90;72.30
37874;DHT22;23709;48.078;11.684;2023-04-25T10:49:34;12.90;71.40
37874;DHT22;23709;48.078;11.684;2023-04-25T10:52:18;12.90;71.10
37874;DHT22;23709;48.078;11.684;2023-04-25T10:54:58;12.90;70.00
37874;DHT22;23709;48.078;11.684;2023-04-25T11:02:51;11.70;85.40
37874;DHT22;23709;48.078;11.684;2023-04-25T11:05:33;11.30;83.60
37874;DHT22;23709;48.078;11.684;2023-04-25T11:08:35;10.90;85.10
37874;DHT22;23709;48.078;11.684;2023-04-25T11:11:08;11.00;84.70
37874;DHT22;23709;48.078;11.684;2023-04-25T11:13:41;11.00;84.70
37874;DHT22;23709;48.078;11.684;2023-04-25T11:16:13;10.80;81.50
37874;DHT22;23709;48.078;11.684;2023-04-25T11:18:48;10.80;83.80
37874;DHT22;23709;48.078;11.684;2023-04-25T11:21:21;10.70;85.60
37874;DHT22;23709;48.078;11.684;2023-04-25T11:23:55;10.50;87.40
37874;DHT22;23709;48.078;11.684;2023-04-25T11:26:30;10.30;90.00
37874;DHT22;23709;48.078;11.684;2023-04-25T11:29:02;10.40;91.10
37874;DHT22;23709;48.078;11.684;2023-04-25T11:31:35;10.50;91.00
37874;DHT22;23709;48.078;11.684;2023-04-25T11:34:07;10.50;89.40
37874;DHT22;23709;48.078;11.684;2023-04-25T11:36:40;9.70;91.90
37874;DHT22;23709;48.078;11.684;2023-04-25T11:39:12;9.40;94.40
37874;DHT22;23709;48.078;11.684;2023-04-25T11:41:46;9.40;96.60
37874;DHT22;23709;48.078;11.684;2023-04-25T11:44:19;9.00;99.40
37874;DHT22;23709;48.078;11.684;2023-04-25T11:46:52;8.70;99.90
37874;DHT22;23709;48.078;11.684;2023-04-25T11:49:24;8.50;99.90
37874;DHT22;23709;48.078;11.684;2023-04-25T11:52:06;8.40;99.90
37874;DHT22;23709;48.078;11.684;2023-04-25T11:54:39;8.50;99.90
37874;DHT22;23709;48.078;11.684;2023-04-25T11:57:13;8.70;99.90
37874;DHT22;23709;48.078;11.684;2023-04-25T11:59:46;8.50;99.90
37874;DHT22;23709;48.078;11.684;2023-04-25T12:02:25;8.50;99.90
37874;DHT22;23709;48.078;11.684;2023-04-25T12:04:59;8.50;99.90
37874;DHT22;23709;48.078;11.684;2023-04-25T12:07:51;8.30;99.90
37874;DHT22;23709;48.078;11.684;2023-04-25T12:10:24;8.30;99.90
37874;DHT22;23709;48.078;11.684;2023-04-25T12:12:57;8.00;99.90
37874;DHT22;23709;48.078;11.684;2023-04-25T12:15:30;8.10;99.90
37874;DHT22;23709;48.078;11.684;2023-04-25T12:18:02;7.80;99.90
37874;DHT22;23709;48.078;11.684;2023-04-25T12:20:35;7.90;99.90
37874;DHT22;23709;48.078;11.684;2023-04-25T12:23:08;7.90;99.90
37874;DHT22;23709;48.078;11.684;2023-04-25T12:25:42;8.00;99.90
37874;DHT22;23709;48.078;11.684;2023-04-25T12:28:17;8.00;99.90
37874;DHT22;23709;48.078;11.684;2023-04-25T12:31:00;8.20;99.90
37874;DHT22;23709;48.078;11.684;2023-04-25T12:33:35;8.30;99.90
37874;DHT22;23709;48.078;11.684;2023-04-25T12:36:08;8.40;99.90
37874;DHT22;23709;48.078;11.684;2023-04-25T12:38:42;8.40;99.90
37874;DHT22;23709;48.078;11.684;2023-04-25T12:41:14;8.40;99.90
37874;DHT22;23709;48.078;11.684;2023-04-25T12:43:46;8.30;99.90
37874;DHT22;23709;48.078;11.684;2023-04-25T12:46:19;8.30;99.90
37874;DHT22;23709;48.078;11.684;2023-04-25T12:48:52;8.40;99.90
37874;DHT22;23709;48.078;11.684;2023-04-25T12:51:26;8.40;99.90
37874;DHT22;23709;48.078;11.684;2023-04-25T12:54:00;8.50;99.90
37874;DHT22;23709;48.078;11.684;2023-04-25T12:56:33;8.50;99.90
37874;DHT22;23709;48.078;11.684;2023-04-25T12:59:05;8.70;99.90
37874;DHT22;23709;48.078;11.684;2023-04-25T13:01:37;8.90;99.90
37874;DHT22;23709;48.078;11.684;2023-04-25T13:04:10;8.80;99.90
37874;DHT22;23709;48.078;11.684;2023-04-25T13:06:43;8.80;99.90
37874;DHT22;23709;48.078;11.684;2023-04-25T13:09:15;9.00;99.90
37874;DHT22;23709;48.078;11.684;2023-04-25T13:11:47;9.00;99.90
37874;DHT22;23709;48.078;11.684;2023-04-25T13:14:19;9.00;99.90
37874;DHT22;23709;48.078;11.684;2023-04-25T13:16:52;9.00;99.90
37874;DHT22;23709;48.078;11.684;2023-04-25T13:19:25;9.00;99.90
37874;DHT22;23709;48.078;11.684;2023-04-25T13:21:58;8.90;99.90
37874;DHT22;23709;48.078;11.684;2023-04-25T13:24:30;9.00;99.90
37874;DHT22;23709;48.078;11.684;2023-04-25T13:27:03;9.20;99.90
37874;DHT22;23709;48.078;11.684;2023-04-25T13:29:35;9.30;99.90
37874;DHT22;23709;48.078;11.684;2023-04-25T13:32:09;9.30;99.90
37874;DHT22;23709;48.078;11.684;2023-04-25T13:34:41;9.20;99.90
37874;DHT22;23709;48.078;11.684;2023-04-25T13:37:13;9.30;99.90
37874;DHT22;23709;48.078;11.684;2023-04-25T13:39:46;9.10;99.90
37874;DHT22;23709;48.078;11.684;2023-04-25T13:42:18;9.10;99.90
37874;DHT22;23709;48.078;11.684;2023-04-25T13:44:50;9.10;99.90
37874;DHT22;23709;48.078;11.684;2023-04-25T13:47:23;8.70;99.90
37874;DHT22;23709;48.078;11.684;2023-04-25T13:49:56;8.70;99.90
37874;DHT22;23709;48.078;11.684;2023-04-25T13:52:29;8.60;99.90
37874;DHT22;23709;48.078;11.684;2023-04-25T13:55:02;8.60;99.90
37874;DHT22;23709;48.078;11.684;2023-04-25T13:57:35;8.60;99.90
37874;DHT22;23709;48.078;11.684;2023-04-25T14:00:12;8.70;99.90
37874;DHT22;23709;48.078;11.684;2023-04-25T14:02:44;8.70;99.90
37874;DHT22;23709;48.078;11.684;2023-04-25T14:05:19;8.60;99.90
37874;DHT22;23709;48.078;11.684;2023-04-25T14:07:52;8.60;99.90
37874;DHT22;23709;48.078;11.684;2023-04-25T14:10:24;8.50;99.90
37874;DHT22;23709;48.078;11.684;2023-04-25T14:12:56;8.30;99.90
37874;DHT22;23709;48.078;11.684;2023-04-25T14:15:30;8.20;99.90
37874;DHT22;23709;48.078;11.684;2023-04-25T14:18:02;8.20;99.90
37874;DHT22;23709;48.078;11.684;2023-04-25T14:20:35;8.00;99.90
37874;DHT22;23709;48.078;11.684;2023-04-25T14:23:07;7.90;99.90
37874;DHT22;23709;48.078;11.684;2023-04-25T14:25:40;7.90;99.90
37874;DHT22;23709;48.078;11.684;2023-04-25T14:28:13;7.90;99.90
37874;DHT22;23709;48.078;11.684;2023-04-25T14:30:46;8.00;99.90
37874;DHT22;23709;48.078;11.684;2023-04-25T14:33:18;8.10;99.90
37874;DHT22;23709;48.078;11.684;2023-04-25T14:35:50;8.20;99.90
37874;DHT22;23709;48.078;11.684;2023-04-25T14:38:23;8.20;99.90
37874;DHT22;23709;48.078;11.684;2023-04-25T14:40:57;8.10;99.90
37874;DHT22;23709;48.078;11.684;2023-04-25T14:43:29;8.10;99.90
37874;DHT22;23709;48.078;11.684;2023-04-25T14:46:02;8.10;99.90
37874;DHT22;23709;48.078;11.684;2023-04-25T14:48:35;8.00;99.90
37874;DHT22;23709;48.078;11.684;2023-04-25T14:51:07;8.00;99.90
37874;DHT22;23709;48.078;11.684;2023-04-25T14:53:40;8.30;99.90
37874;DHT22;23709;48.078;11.684;2023-04-25T14:56:13;8.40;99.90
37874;DHT22;23709;48.078;11.684;2023-04-25T14:58:45;8.50;99.90
37874;DHT22;23709;48.078;11.684;2023-04-25T15:01:18;8.50;99.90
37874;DHT22;23709;48.078;11.684;2023-04-25T15:03:53;8.70;99.90
37874;DHT22;23709;48.078;11.684;2023-04-25T15:06:26;8.90;99.90
37874;DHT22;23709;48.078;11.684;2023-04-25T15:09:01;9.20;99.90
37874;DHT22;23709;48.078;11.684;2023-04-25T15:11:34;9.40;99.90
37874;DHT22;23709;48.078;11.684;2023-04-25T15:14:06;9.40;99.90
37874;DHT22;23709;48.078;11.684;2023-04-25T15:16:38;9.30;99.90
37874;DHT22;23709;48.078;11.684;2023-04-25T15:19:10;9.30;99.90
37874;DHT22;23709;48.078;11.684;2023-04-25T15:21:43;9.10;99.90
37874;DHT22;23709;48.078;11.684;2023-04-25T15:24:15;9.00;99.90
37874;DHT22;23709;48.078;11.684;2023-04-25T15:26:48;9.10;99.90
37874;DHT22;23709;48.078;11.684;2023-04-25T15:29:20;9.20;99.90
37874;DHT22;23709;48.078;11.684;2023-04-25T15:31:53;9.30;99.90
37874;DHT22;23709;48.078;11.684;2023-04-25T15:34:26;9.20;99.90
37874;DHT22;23709;48.078;11.684;2023-04-25T15:36:58;9.10;99.90
37874;DHT22;23709;48.078;11.684;2023-04-25T15:39:30;8.80;99.90
37874;DHT22;23709;48.078;11.684;2023-04-25T15:42:03;8.90;99.90
37874;DHT22;23709;48.078;11.684;2023-04-25T15:44:35;8.80;99.90
37874;DHT22;23709;48.078;11.684;2023-04-25T15:47:08;9.00;99.90
37874;DHT22;23709;48.078;11.684;2023-04-25T15:49:41;9.00;99.90
37874;DHT22;23709;48.078;11.684;2023-04-25T15:52:13;9.10;99.90
37874;DHT22;23709;48.078;11.684;2023-04-25T15:54:45;9.10;99.90
37874;DHT22;23709;48.078;11.684;2023-04-25T15:57:18;9.00;99.90
37874;DHT22;23709;48.078;11.684;2023-04-25T15:59:50;9.00;99.90
37874;DHT22;23709;48.078;11.684;2023-04-25T16:02:22;9.10;99.90
37874;DHT22;23709;48.078;11.684;2023-04-25T16:04:55;9.00;99.90
37874;DHT22;23709;48.078;11.684;2023-04-25T16:07:28;9.10;99.90
37874;DHT22;23709;48.078;11.684;2023-04-25T16:10:01;9.00;99.90
37874;DHT22;23709;48.078;11.684;2023-04-25T16:12:34;9.00;99.90
37874;DHT22;23709;48.078;11.684;2023-04-25T16:15:07;9.10;99.90
37874;DHT22;23709;48.078;11.684;2023-04-25T16:17:40;9.00;99.90
37874;DHT22;23709;48.078;11.684;2023-04-25T16:20:16;8.90;99.90
37874;DHT22;23709;48.078;11.684;2023-04-25T16:22:48;8.80;99.90
37874;DHT22;23709;48.078;11.684;2023-04-25T16:25:21;8.70;99.90